Galva, IA (51020)

11:47 AM CDT on March 23, 2017 (GMT -0500)
Holstein Ag Services, LLC | | Change Station

Elev 1381 ft 42.50 °N, 95.54 °W | Updated 11 seconds ago

Overcast
Overcast
47.3 °F
Feels Like 40 °F
N
23.0
Wind Variable Wind from SE
Gusts 28.0 mph

Today
High -- | Low -- °F
--% Chance of Precip.
Yesterday
High -- | Low -- °F
Precip. -- in
Pressure 29.93 in
Visibility 10.0 miles
Clouds Overcast 1900 ft
Windchill 40 °F
Dew Point 46 °F
Humidity 97%
Rainfall 0.00 in
Snow Depth Not available.
7:19 AM 7:37 PM
Waning Crescent, 22% visible
METAR KSLB 231635Z AUTO 14019KT 10SM OVC019 07/M02 A2993 RMK AO2
Pressure 29.93 in
Visibility 10.0 miles
Clouds Overcast 1900 ft
Windchill 40 °F
Dew Point 46 °F
Humidity 97%
Rainfall 0.00 in
Snow Depth Not available.
7:19 AM 7:37 PM
Waning Crescent, 22% visible
METAR KSLB 231635Z AUTO 14019KT 10SM OVC019 07/M02 A2993 RMK AO2

Get Severe Weather Alerts

Thanks for signing up!

Be on the lookout for a verification email in your inbox.

You'll start receiving the daily forecast at 8 AM.

×

10-Day Weather Forecast

Almanac

Astronomy

Mar. 23, 2017 Rise Set
Actual Time
Civil Twilight
Nautical Twilight
Astronomical Twilight
Moon
Length of Visible Light
Length of Day
Tomorrow will be .
, % of the Moon is Illuminated

Today's Extremes

State Highs State Lows

Community

WunderPhotos

Upload Photos

1,962,540 photos uploaded!

WunderBlog® & News

Nearby

Air Quality

  Air Quality AQ Index Pollutant
Not available.

Snow Depth

Station Depth Elevation

Earthquake Activity

City Distance Mag. Time & Date
Minimum magnitude displayed is 2.5.

Earthquake Activity

City Distance Mag. Time & Date
Minimum magnitude displayed is 2.5.

Coastal Water Temperatures

Place Temperature

Stations

Nearby Weather Stations

Station Location Temp. Windchill Dew Point Humidity Wind Precip. Elev Updated Type
                   

Watches & Warnings

There are currently no watches in effect.